sensor_id;sensor_type;location;lat;lon;timestamp;pressure;altitude;pressure_sealevel;temperature;humidity
22662;BME280;11497;52.222;21.246;2023-02-12T00:01:23;101644.16;;;2.21;76.62
22662;BME280;11497;52.222;21.246;2023-02-12T00:03:51;101649.28;;;2.18;76.17
22662;BME280;11497;52.222;21.246;2023-02-12T00:06:20;101650.03;;;2.13;76.09
22662;BME280;11497;52.222;21.246;2023-02-12T00:08:50;101644.16;;;2.21;75.87
22662;BME280;11497;52.222;21.246;2023-02-12T00:11:24;101653.63;;;2.21;75.83
22662;BME280;11497;52.222;21.246;2023-02-12T00:13:52;101659.44;;;2.09;76.08
22662;BME280;11497;52.222;21.246;2023-02-12T00:16:23;101673.31;;;2.14;76.13
22662;BME280;11497;52.222;21.246;2023-02-12T00:18:53;101675.06;;;2.15;76.34
22662;BME280;11497;52.222;21.246;2023-02-12T00:21:22;101681.16;;;2.20;76.64
22662;BME280;11497;52.222;21.246;2023-02-12T00:23:50;101686.06;;;2.07;76.51
22662;BME280;11497;52.222;21.246;2023-02-12T00:26:19;101685.06;;;2.00;76.81
22662;BME280;11497;52.222;21.246;2023-02-12T00:28:50;101682.78;;;2.14;76.01
22662;BME280;11497;52.222;21.246;2023-02-12T00:31:21;101681.81;;;2.09;75.88
22662;BME280;11497;52.222;21.246;2023-02-12T00:33:50;101692.41;;;2.22;75.38
22662;BME280;11497;52.222;21.246;2023-02-12T00:36:21;101694.72;;;2.09;75.18
22662;BME280;11497;52.222;21.246;2023-02-12T00:38:51;101697.69;;;2.27;75.62
22662;BME280;11497;52.222;21.246;2023-02-12T00:41:19;101698.84;;;2.00;75.96
22662;BME280;11497;52.222;21.246;2023-02-12T00:43:48;101707.66;;;2.10;75.73
22662;BME280;11497;52.222;21.246;2023-02-12T00:46:16;101704.69;;;1.93;76.09
22662;BME280;11497;52.222;21.246;2023-02-12T00:48:44;101705.78;;;2.03;76.19
22662;BME280;11497;52.222;21.246;2023-02-12T00:51:11;101704.84;;;1.99;75.51
22662;BME280;11497;52.222;21.246;2023-02-12T00:53:39;101704.09;;;2.05;76.03
22662;BME280;11497;52.222;21.246;2023-02-12T00:56:07;101719.44;;;1.99;75.57
22662;BME280;11497;52.222;21.246;2023-02-12T00:58:35;101714.28;;;1.99;75.50
22662;BME280;11497;52.222;21.246;2023-02-12T01:01:03;101714.69;;;1.80;76.06
22662;BME280;11497;52.222;21.246;2023-02-12T01:03:31;101720.03;;;1.87;76.02
22662;BME280;11497;52.222;21.246;2023-02-12T01:05:59;101728.94;;;2.00;76.18
22662;BME280;11497;52.222;21.246;2023-02-12T01:08:27;101731.59;;;2.03;75.45
22662;BME280;11497;52.222;21.246;2023-02-12T01:11:00;101738.47;;;2.03;75.74
22662;BME280;11497;52.222;21.246;2023-02-12T01:13:29;101747.75;;;1.94;75.97
22662;BME280;11497;52.222;21.246;2023-02-12T01:18:46;101738.28;;;1.95;75.70
22662;BME280;11497;52.222;21.246;2023-02-12T01:21:16;101748.28;;;2.19;75.63
22662;BME280;11497;52.222;21.246;2023-02-12T01:23:45;101763.97;;;2.26;75.07
22662;BME280;11497;52.222;21.246;2023-02-12T01:26:14;101766.31;;;2.14;75.23
22662;BME280;11497;52.222;21.246;2023-02-12T01:28:44;101761.00;;;2.08;75.54
22662;BME280;11497;52.222;21.246;2023-02-12T01:31:17;101759.31;;;2.10;75.68
22662;BME280;11497;52.222;21.246;2023-02-12T01:33:50;101765.44;;;2.14;75.53
22662;BME280;11497;52.222;21.246;2023-02-12T01:36:18;101757.72;;;2.15;75.21
22662;BME280;11497;52.222;21.246;2023-02-12T01:38:48;101763.53;;;2.07;75.55
22662;BME280;11497;52.222;21.246;2023-02-12T01:41:19;101765.63;;;1.87;75.55
22662;BME280;11497;52.222;21.246;2023-02-12T01:44:10;101779.53;;;1.92;76.12
22662;BME280;11497;52.222;21.246;2023-02-12T01:46:38;101784.28;;;1.75;76.48
22662;BME280;11497;52.222;21.246;2023-02-12T01:49:11;101780.13;;;1.82;77.00
22662;BME280;11497;52.222;21.246;2023-02-12T01:51:40;101794.50;;;1.71;77.39
22662;BME280;11497;52.222;21.246;2023-02-12T01:54:11;101784.09;;;1.67;77.81
22662;BME280;11497;52.222;21.246;2023-02-12T01:56:41;101791.13;;;1.73;78.09
22662;BME280;11497;52.222;21.246;2023-02-12T01:59:09;101795.09;;;1.95;77.16
22662;BME280;11497;52.222;21.246;2023-02-12T02:01:38;101786.81;;;2.08;77.17
22662;BME280;11497;52.222;21.246;2023-02-12T02:04:16;101790.72;;;2.28;76.25
22662;BME280;11497;52.222;21.246;2023-02-12T02:09:23;101803.38;;;2.16;75.95
22662;BME280;11497;52.222;21.246;2023-02-12T02:11:55;101809.84;;;2.37;75.31
22662;BME280;11497;52.222;21.246;2023-02-12T02:14:42;101819.56;;;2.09;74.87
22662;BME280;11497;52.222;21.246;2023-02-12T02:17:35;101826.63;;;1.83;75.87
22662;BME280;11497;52.222;21.246;2023-02-12T02:26:21;101837.56;;;1.72;77.35
22662;BME280;11497;52.222;21.246;2023-02-12T02:44:35;101883.13;;;2.04;76.36
22662;BME280;11497;52.222;21.246;2023-02-12T02:47:09;101878.41;;;2.22;74.71
22662;BME280;11497;52.222;21.246;2023-02-12T02:49:43;101893.97;;;2.25;73.84
22662;BME280;11497;52.222;21.246;2023-02-12T02:52:20;101901.97;;;2.00;73.98
22662;BME280;11497;52.222;21.246;2023-02-12T02:54:55;101902.13;;;2.06;74.52
22662;BME280;11497;52.222;21.246;2023-02-12T02:57:37;101899.81;;;1.84;74.52
22662;BME280;11497;52.222;21.246;2023-02-12T03:02:49;101915.06;;;2.08;74.12
22662;BME280;11497;52.222;21.246;2023-02-12T03:05:25;101926.94;;;2.01;73.64
22662;BME280;11497;52.222;21.246;2023-02-12T03:08:12;101946.34;;;2.20;73.33
22662;BME280;11497;52.222;21.246;2023-02-12T03:10:47;101959.56;;;1.97;72.42
22662;BME280;11497;52.222;21.246;2023-02-12T03:13:20;101972.44;;;1.96;72.58
22662;BME280;11497;52.222;21.246;2023-02-12T03:16:02;101978.47;;;1.96;72.55
22662;BME280;11497;52.222;21.246;2023-02-12T03:18:35;101973.19;;;1.92;71.97
22662;BME280;11497;52.222;21.246;2023-02-12T03:21:13;101983.38;;;1.87;71.88
22662;BME280;11497;52.222;21.246;2023-02-12T03:24:12;101986.09;;;1.92;72.05
22662;BME280;11497;52.222;21.246;2023-02-12T03:27:07;101995.47;;;1.88;71.36
22662;BME280;11497;52.222;21.246;2023-02-12T03:29:36;102002.25;;;1.85;72.02
22662;BME280;11497;52.222;21.246;2023-02-12T03:32:23;102009.72;;;1.76;71.90
22662;BME280;11497;52.222;21.246;2023-02-12T03:35:15;102011.38;;;1.74;72.43
22662;BME280;11497;52.222;21.246;2023-02-12T03:38:01;102014.19;;;1.81;72.55
22662;BME280;11497;52.222;21.246;2023-02-12T03:40:39;102024.13;;;1.67;72.91
22662;BME280;11497;52.222;21.246;2023-02-12T03:48:55;102048.50;;;2.07;71.63
22662;BME280;11497;52.222;21.246;2023-02-12T03:51:28;102049.03;;;1.95;71.34
22662;BME280;11497;52.222;21.246;2023-02-12T03:53:57;102042.16;;;1.96;71.14
22662;BME280;11497;52.222;21.246;2023-02-12T03:56:31;102052.94;;;1.83;70.94
22662;BME280;11497;52.222;21.246;2023-02-12T03:59:00;102053.22;;;1.92;71.62
22662;BME280;11497;52.222;21.246;2023-02-12T04:01:30;102060.88;;;1.89;71.55
22662;BME280;11497;52.222;21.246;2023-02-12T04:04:02;102055.16;;;1.99;71.47
22662;BME280;11497;52.222;21.246;2023-02-12T04:06:31;102058.91;;;2.10;70.12
22662;BME280;11497;52.222;21.246;2023-02-12T04:09:05;102055.44;;;1.80;69.43
22662;BME280;11497;52.222;21.246;2023-02-12T04:14:56;102056.13;;;1.73;69.70
22662;BME280;11497;52.222;21.246;2023-02-12T04:17:56;102057.59;;;1.64;69.65
22662;BME280;11497;52.222;21.246;2023-02-12T04:20:26;102059.06;;;1.56;69.42
22662;BME280;11497;52.222;21.246;2023-02-12T04:28:43;102065.63;;;1.75;69.01
22662;BME280;11497;52.222;21.246;2023-02-12T04:31:27;102066.75;;;1.55;69.06
22662;BME280;11497;52.222;21.246;2023-02-12T04:34:11;102075.06;;;1.73;68.97
22662;BME280;11497;52.222;21.246;2023-02-12T04:37:03;102074.00;;;1.66;69.15
22662;BME280;11497;52.222;21.246;2023-02-12T04:39:35;102075.97;;;1.47;69.55
22662;BME280;11497;52.222;21.246;2023-02-12T04:42:04;102081.69;;;1.37;70.13
22662;BME280;11497;52.222;21.246;2023-02-12T04:44:36;102078.78;;;1.26;70.64
22662;BME280;11497;52.222;21.246;2023-02-12T04:47:04;102077.13;;;1.28;71.46
22662;BME280;11497;52.222;21.246;2023-02-12T04:49:32;102083.31;;;1.34;71.79
22662;BME280;11497;52.222;21.246;2023-02-12T04:51:59;102090.94;;;1.30;71.66
22662;BME280;11497;52.222;21.246;2023-02-12T04:54:27;102092.66;;;1.31;71.30
22662;BME280;11497;52.222;21.246;2023-02-12T04:56:55;102093.53;;;1.30;71.23
22662;BME280;11497;52.222;21.246;2023-02-12T04:59:23;102093.66;;;1.34;71.24
22662;BME280;11497;52.222;21.246;2023-02-12T05:01:51;102105.34;;;1.23;71.42
22662;BME280;11497;52.222;21.246;2023-02-12T05:04:19;102115.16;;;1.35;71.63
22662;BME280;11497;52.222;21.246;2023-02-12T05:06:46;102108.16;;;1.31;71.35
22662;BME280;11497;52.222;21.246;2023-02-12T05:09:17;102124.56;;;1.33;71.33
22662;BME280;11497;52.222;21.246;2023-02-12T05:11:45;102123.47;;;1.25;71.50
22662;BME280;11497;52.222;21.246;2023-02-12T05:14:13;102126.97;;;1.27;71.72
22662;BME280;11497;52.222;21.246;2023-02-12T05:16:41;102133.81;;;1.26;71.63
22662;BME280;11497;52.222;21.246;2023-02-12T05:19:09;102135.69;;;1.32;72.12
22662;BME280;11497;52.222;21.246;2023-02-12T05:21:37;102148.72;;;1.62;70.70
22662;BME280;11497;52.222;21.246;2023-02-12T05:24:06;102151.56;;;1.44;70.93
22662;BME280;11497;52.222;21.246;2023-02-12T05:26:34;102168.28;;;1.55;71.15
22662;BME280;11497;52.222;21.246;2023-02-12T05:29:02;102151.88;;;1.53;69.97
22662;BME280;11497;52.222;21.246;2023-02-12T05:31:30;102161.50;;;1.32;69.79
22662;BME280;11497;52.222;21.246;2023-02-12T05:33:58;102170.25;;;1.37;70.22
22662;BME280;11497;52.222;21.246;2023-02-12T05:36:26;102176.91;;;1.29;70.64
22662;BME280;11497;52.222;21.246;2023-02-12T05:38:57;102176.59;;;1.20;70.85
22662;BME280;11497;52.222;21.246;2023-02-12T05:41:26;102189.69;;;1.26;70.31
22662;BME280;11497;52.222;21.246;2023-02-12T05:43:54;102194.75;;;1.23;70.50
22662;BME280;11497;52.222;21.246;2023-02-12T05:46:22;102193.28;;;1.31;70.60
22662;BME280;11497;52.222;21.246;2023-02-12T05:48:50;102194.47;;;1.41;70.37
22662;BME280;11497;52.222;21.246;2023-02-12T05:51:27;102206.47;;;1.40;69.98
22662;BME280;11497;52.222;21.246;2023-02-12T05:53:58;102214.56;;;1.24;70.33
22662;BME280;11497;52.222;21.246;2023-02-12T05:56:31;102205.03;;;1.48;69.74
22662;BME280;11497;52.222;21.246;2023-02-12T05:59:02;102215.47;;;1.51;69.11
22662;BME280;11497;52.222;21.246;2023-02-12T06:01:39;102213.41;;;1.41;68.69
22662;BME280;11497;52.222;21.246;2023-02-12T06:04:18;102208.63;;;1.26;68.69
22662;BME280;11497;52.222;21.246;2023-02-12T06:06:46;102217.88;;;1.20;68.80
22662;BME280;11497;52.222;21.246;2023-02-12T06:09:14;102226.81;;;1.31;69.25
22662;BME280;11497;52.222;21.246;2023-02-12T06:11:42;102228.69;;;1.35;68.51
22662;BME280;11497;52.222;21.246;2023-02-12T06:14:14;102226.44;;;1.19;68.04
22662;BME280;11497;52.222;21.246;2023-02-12T06:16:48;102236.63;;;1.16;68.77
22662;BME280;11497;52.222;21.246;2023-02-12T06:19:16;102245.47;;;0.98;69.25
22662;BME280;11497;52.222;21.246;2023-02-12T06:21:45;102257.03;;;1.10;69.50
22662;BME280;11497;52.222;21.246;2023-02-12T06:24:14;102247.16;;;1.22;69.59
22662;BME280;11497;52.222;21.246;2023-02-12T06:26:42;102252.59;;;1.31;69.36
22662;BME280;11497;52.222;21.246;2023-02-12T06:29:11;102259.03;;;1.42;68.65
22662;BME280;11497;52.222;21.246;2023-02-12T06:31:39;102273.06;;;1.25;68.93
22662;BME280;11497;52.222;21.246;2023-02-12T06:34:09;102269.94;;;1.10;69.36
22662;BME280;11497;52.222;21.246;2023-02-12T06:36:40;102268.56;;;0.95;69.66
22662;BME280;11497;52.222;21.246;2023-02-12T06:39:09;102270.16;;;0.92;70.19
22662;BME280;11497;52.222;21.246;2023-02-12T06:41:37;102276.56;;;1.03;70.16
22662;BME280;11497;52.222;21.246;2023-02-12T06:44:05;102271.66;;;1.09;70.01
22662;BME280;11497;52.222;21.246;2023-02-12T06:46:34;102279.38;;;1.09;70.21
22662;BME280;11497;52.222;21.246;2023-02-12T06:49:02;102271.81;;;1.14;70.64
22662;BME280;11497;52.222;21.246;2023-02-12T06:51:29;102278.22;;;1.25;70.95
22662;BME280;11497;52.222;21.246;2023-02-12T06:53:58;102274.31;;;1.61;70.85
22662;BME280;11497;52.222;21.246;2023-02-12T06:56:26;102277.91;;;1.66;70.51
22662;BME280;11497;52.222;21.246;2023-02-12T06:58:56;102276.25;;;1.69;70.65
22662;BME280;11497;52.222;21.246;2023-02-12T07:01:26;102283.91;;;1.65;70.49
22662;BME280;11497;52.222;21.246;2023-02-12T07:03:56;102281.13;;;1.59;70.17
22662;BME280;11497;52.222;21.246;2023-02-12T07:06:25;102284.13;;;1.72;70.27
22662;BME280;11497;52.222;21.246;2023-02-12T07:08:54;102293.88;;;2.36;70.29
22662;BME280;11497;52.222;21.246;2023-02-12T07:11:28;102288.66;;;2.92;69.04
22662;BME280;11497;52.222;21.246;2023-02-12T07:13:56;102292.88;;;3.53;68.06
22662;BME280;11497;52.222;21.246;2023-02-12T07:16:24;102289.91;;;4.07;66.82
22662;BME280;11497;52.222;21.246;2023-02-12T07:18:52;102290.16;;;4.57;65.67
22662;BME280;11497;52.222;21.246;2023-02-12T07:21:20;102296.63;;;5.19;63.48
22662;BME280;11497;52.222;21.246;2023-02-12T07:23:50;102292.81;;;5.47;60.29
22662;BME280;11497;52.222;21.246;2023-02-12T07:26:19;102292.09;;;5.56;59.53
22662;BME280;11497;52.222;21.246;2023-02-12T07:28:48;102294.97;;;5.73;58.23
22662;BME280;11497;52.222;21.246;2023-02-12T07:31:20;102300.72;;;5.53;57.22
22662;BME280;11497;52.222;21.246;2023-02-12T07:33:53;102302.16;;;5.38;56.15
22662;BME280;11497;52.222;21.246;2023-02-12T07:36:22;102299.84;;;5.08;56.03
22662;BME280;11497;52.222;21.246;2023-02-12T07:38:50;102304.66;;;4.89;55.92
22662;BME280;11497;52.222;21.246;2023-02-12T07:41:21;102305.69;;;4.97;56.20
22662;BME280;11497;52.222;21.246;2023-02-12T07:43:54;102304.09;;;5.03;55.74
22662;BME280;11497;52.222;21.246;2023-02-12T07:46:28;102316.09;;;4.97;54.88
22662;BME280;11497;52.222;21.246;2023-02-12T07:48:58;102307.59;;;5.05;55.09
22662;BME280;11497;52.222;21.246;2023-02-12T07:51:27;102307.53;;;5.01;54.18
22662;BME280;11497;52.222;21.246;2023-02-12T07:53:55;102316.78;;;5.34;54.52
22662;BME280;11497;52.222;21.246;2023-02-12T07:56:26;102316.63;;;5.73;53.49
22662;BME280;11497;52.222;21.246;2023-02-12T07:59:01;102308.16;;;5.35;53.60
22662;BME280;11497;52.222;21.246;2023-02-12T08:01:31;102319.94;;;5.63;52.84
22662;BME280;11497;52.222;21.246;2023-02-12T08:04:02;102317.22;;;5.57;52.76
22662;BME280;11497;52.222;21.246;2023-02-12T08:06:32;102314.72;;;6.14;52.13
22662;BME280;11497;52.222;21.246;2023-02-12T08:09:02;102326.66;;;6.59;51.59
22662;BME280;11497;52.222;21.246;2023-02-12T08:11:30;102329.13;;;7.15;51.17
22662;BME280;11497;52.222;21.246;2023-02-12T08:13:59;102319.69;;;8.20;49.47
22662;BME280;11497;52.222;21.246;2023-02-12T08:16:28;102327.88;;;8.75;47.83
22662;BME280;11497;52.222;21.246;2023-02-12T08:18:57;102328.16;;;10.04;46.30
22662;BME280;11497;52.222;21.246;2023-02-12T08:21:41;102343.81;;;10.74;44.08
22662;BME280;11497;52.222;21.246;2023-02-12T08:24:09;102338.44;;;11.06;42.60
22662;BME280;11497;52.222;21.246;2023-02-12T08:26:38;102353.81;;;11.69;41.37
22662;BME280;11497;52.222;21.246;2023-02-12T08:29:10;102342.53;;;11.59;39.75
22662;BME280;11497;52.222;21.246;2023-02-12T08:31:41;102344.81;;;12.09;39.66
22662;BME280;11497;52.222;21.246;2023-02-12T08:34:21;102351.06;;;12.80;38.59
22662;BME280;11497;52.222;21.246;2023-02-12T08:36:50;102344.59;;;13.07;37.81
22662;BME280;11497;52.222;21.246;2023-02-12T08:39:19;102336.31;;;13.42;36.50
22662;BME280;11497;52.222;21.246;2023-02-12T08:41:47;102346.09;;;13.88;35.93
22662;BME280;11497;52.222;21.246;2023-02-12T08:44:16;102352.47;;;14.28;34.84
22662;BME280;11497;52.222;21.246;2023-02-12T08:46:46;102355.34;;;14.64;34.24
22662;BME280;11497;52.222;21.246;2023-02-12T08:49:20;102361.06;;;15.27;33.22
22662;BME280;11497;52.222;21.246;2023-02-12T08:51:50;102346.25;;;15.22;32.72
22662;BME280;11497;52.222;21.246;2023-02-12T08:54:25;102358.78;;;15.91;31.91
22662;BME280;11497;52.222;21.246;2023-02-12T08:57:00;102361.91;;;16.41;31.37
22662;BME280;11497;52.222;21.246;2023-02-12T08:59:29;102348.00;;;16.98;30.49
22662;BME280;11497;52.222;21.246;2023-02-12T09:01:57;102352.25;;;16.72;29.79
22662;BME280;11497;52.222;21.246;2023-02-12T09:04:26;102356.16;;;17.21;29.29
22662;BME280;11497;52.222;21.246;2023-02-12T09:06:55;102354.22;;;17.26;28.70
22662;BME280;11497;52.222;21.246;2023-02-12T09:09:23;102353.75;;;18.23;27.80
22662;BME280;11497;52.222;21.246;2023-02-12T09:11:51;102355.34;;;18.54;27.51
22662;BME280;11497;52.222;21.246;2023-02-12T09:14:20;102362.44;;;18.02;26.85
22662;BME280;11497;52.222;21.246;2023-02-12T09:16:51;102371.50;;;17.95;26.76
22662;BME280;11497;52.222;21.246;2023-02-12T09:19:20;102369.66;;;17.97;26.86
22662;BME280;11497;52.222;21.246;2023-02-12T09:21:52;102360.84;;;18.48;26.55
22662;BME280;11497;52.222;21.246;2023-02-12T09:24:23;102367.13;;;18.45;26.13
22662;BME280;11497;52.222;21.246;2023-02-12T09:26:51;102373.78;;;18.06;26.31
22662;BME280;11497;52.222;21.246;2023-02-12T09:29:19;102380.03;;;18.56;26.25
22662;BME280;11497;52.222;21.246;2023-02-12T09:31:47;102383.31;;;18.11;25.79
22662;BME280;11497;52.222;21.246;2023-02-12T09:34:15;102385.31;;;18.56;25.82
22662;BME280;11497;52.222;21.246;2023-02-12T09:36:42;102388.53;;;18.14;25.60
22662;BME280;11497;52.222;21.246;2023-02-12T09:39:10;102387.84;;;18.08;25.68
22662;BME280;11497;52.222;21.246;2023-02-12T09:44:46;102392.50;;;17.14;25.79
22662;BME280;11497;52.222;21.246;2023-02-12T09:52:26;102409.28;;;17.74;25.84
22662;BME280;11497;52.222;21.246;2023-02-12T09:54:55;102403.88;;;17.18;25.84
22662;BME280;11497;52.222;21.246;2023-02-12T09:57:27;102404.59;;;17.23;26.15
22662;BME280;11497;52.222;21.246;2023-02-12T10:00:04;102405.25;;;17.00;26.27
22662;BME280;11497;52.222;21.246;2023-02-12T10:02:38;102410.78;;;15.87;26.30
22662;BME280;11497;52.222;21.246;2023-02-12T10:05:16;102407.69;;;15.27;26.90
22662;BME280;11497;52.222;21.246;2023-02-12T10:13:53;102396.16;;;15.31;27.71
22662;BME280;11497;52.222;21.246;2023-02-12T10:16:36;102381.75;;;15.47;27.82
22662;BME280;11497;52.222;21.246;2023-02-12T10:19:23;102381.78;;;15.06;28.00
22662;BME280;11497;52.222;21.246;2023-02-12T10:27:41;102391.31;;;14.14;28.85
22662;BME280;11497;52.222;21.246;2023-02-12T10:33:05;102397.28;;;13.69;29.66
22662;BME280;11497;52.222;21.246;2023-02-12T10:35:34;102405.25;;;12.93;30.05
22662;BME280;11497;52.222;21.246;2023-02-12T10:38:07;102411.41;;;11.93;31.07
22662;BME280;11497;52.222;21.246;2023-02-12T10:40:44;102410.19;;;10.37;32.33
22662;BME280;11497;52.222;21.246;2023-02-12T10:43:13;102403.78;;;9.13;34.35
22662;BME280;11497;52.222;21.246;2023-02-12T10:45:42;102410.31;;;8.42;36.29
22662;BME280;11497;52.222;21.246;2023-02-12T10:48:29;102391.56;;;7.89;37.02
22662;BME280;11497;52.222;21.246;2023-02-12T10:53:37;102391.72;;;8.04;39.15
22662;BME280;11497;52.222;21.246;2023-02-12T10:58:53;102389.38;;;7.45;40.45
22662;BME280;11497;52.222;21.246;2023-02-12T11:01:37;102385.78;;;7.37;41.18
22662;BME280;11497;52.222;21.246;2023-02-12T11:04:26;102394.50;;;7.36;41.72
22662;BME280;11497;52.222;21.246;2023-02-12T11:07:05;102389.31;;;7.42;41.78
22662;BME280;11497;52.222;21.246;2023-02-12T11:09:37;102382.25;;;7.29;41.98
22662;BME280;11497;52.222;21.246;2023-02-12T11:14:55;102391.38;;;6.96;42.99
22662;BME280;11497;52.222;21.246;2023-02-12T11:17:29;102395.72;;;6.97;43.10
22662;BME280;11497;52.222;21.246;2023-02-12T11:22:59;102392.22;;;6.95;43.59
22662;BME280;11497;52.222;21.246;2023-02-12T11:25:33;102390.16;;;6.70;43.80
22662;BME280;11497;52.222;21.246;2023-02-12T11:28:16;102395.66;;;6.91;44.02
22662;BME280;11497;52.222;21.246;2023-02-12T11:30:54;102389.63;;;6.95;44.02
22662;BME280;11497;52.222;21.246;2023-02-12T11:33:28;102390.72;;;7.13;44.10
22662;BME280;11497;52.222;21.246;2023-02-12T11:36:19;102390.59;;;7.04;44.18
22662;BME280;11497;52.222;21.246;2023-02-12T11:38:54;102380.00;;;6.88;44.19
22662;BME280;11497;52.222;21.246;2023-02-12T11:43:50;102376.28;;;6.71;44.39
22662;BME280;11497;52.222;21.246;2023-02-12T11:46:22;102365.88;;;6.71;44.50
22662;BME280;11497;52.222;21.246;2023-02-12T11:48:52;102372.38;;;6.42;44.64
22662;BME280;11497;52.222;21.246;2023-02-12T11:51:26;102373.09;;;6.31;44.65
22662;BME280;11497;52.222;21.246;2023-02-12T11:53:56;102377.72;;;6.49;44.59
22662;BME280;11497;52.222;21.246;2023-02-12T11:56:41;102373.44;;;6.54;44.83
22662;BME280;11497;52.222;21.246;2023-02-12T11:59:30;102370.06;;;6.61;45.56
22662;BME280;11497;52.222;21.246;2023-02-12T12:04:55;102364.09;;;6.13;46.49
22662;BME280;11497;52.222;21.246;2023-02-12T12:07:32;102364.81;;;6.03;46.97
22662;BME280;11497;52.222;21.246;2023-02-12T12:10:30;102368.34;;;6.08;46.95
22662;BME280;11497;52.222;21.246;2023-02-12T12:13:05;102364.50;;;6.37;47.21
22662;BME280;11497;52.222;21.246;2023-02-12T12:15:42;102369.09;;;6.55;46.91
22662;BME280;11497;52.222;21.246;2023-02-12T12:19:09;102361.75;;;6.26;46.51
22662;BME280;11497;52.222;21.246;2023-02-12T12:22:06;102356.47;;;6.23;46.64
22662;BME280;11497;52.222;21.246;2023-02-12T12:24:44;102354.03;;;6.32;47.22
22662;BME280;11497;52.222;21.246;2023-02-12T12:27:33;102337.59;;;6.33;47.83
22662;BME280;11497;52.222;21.246;2023-02-12T12:30:38;102346.47;;;6.48;47.42
22662;BME280;11497;52.222;21.246;2023-02-12T12:33:45;102352.56;;;6.48;47.46
22662;BME280;11497;52.222;21.246;2023-02-12T12:36:27;102342.16;;;6.51;47.69
22662;BME280;11497;52.222;21.246;2023-02-12T12:41:44;102347.38;;;6.50;48.23
22662;BME280;11497;52.222;21.246;2023-02-12T12:44:24;102329.41;;;6.68;48.62
22662;BME280;11497;52.222;21.246;2023-02-12T12:58:32;102332.94;;;6.73;48.57
22662;BME280;11497;52.222;21.246;2023-02-12T13:04:20;102334.91;;;6.89;48.29
22662;BME280;11497;52.222;21.246;2023-02-12T13:07:17;102329.59;;;6.83;48.22
22662;BME280;11497;52.222;21.246;2023-02-12T13:10:02;102324.19;;;6.68;47.60
22662;BME280;11497;52.222;21.246;2023-02-12T13:13:01;102315.31;;;6.54;47.76
22662;BME280;11497;52.222;21.246;2023-02-12T13:29:22;102326.25;;;5.79;50.08
22662;BME280;11497;52.222;21.246;2023-02-12T13:31:56;102325.09;;;5.61;50.21
22662;BME280;11497;52.222;21.246;2023-02-12T13:34:27;102325.53;;;5.39;50.90
22662;BME280;11497;52.222;21.246;2023-02-12T13:37:00;102330.03;;;5.48;50.63
22662;BME280;11497;52.222;21.246;2023-02-12T13:39:34;102311.59;;;5.34;50.13
22662;BME280;11497;52.222;21.246;2023-02-12T13:42:17;102321.88;;;5.28;50.39
22662;BME280;11497;52.222;21.246;2023-02-12T13:51:03;102328.28;;;5.01;51.73
22662;BME280;11497;52.222;21.246;2023-02-12T13:58:55;102331.53;;;4.91;52.44
22662;BME280;11497;52.222;21.246;2023-02-12T14:01:38;102339.28;;;4.90;52.53
22662;BME280;11497;52.222;21.246;2023-02-12T14:06:57;102331.94;;;4.69;53.17
22662;BME280;11497;52.222;21.246;2023-02-12T14:20:20;102337.19;;;4.34;53.83
22662;BME280;11497;52.222;21.246;2023-02-12T14:27:53;102324.91;;;4.26;54.88
22662;BME280;11497;52.222;21.246;2023-02-12T14:30:36;102331.50;;;4.13;55.52
22662;BME280;11497;52.222;21.246;2023-02-12T14:35:42;102328.25;;;3.86;55.97
22662;BME280;11497;52.222;21.246;2023-02-12T14:40:48;102331.38;;;3.73;57.10
22662;BME280;11497;52.222;21.246;2023-02-12T14:48:50;102323.59;;;3.40;59.22
22662;BME280;11497;52.222;21.246;2023-02-12T14:51:35;102320.63;;;3.26;59.30
22662;BME280;11497;52.222;21.246;2023-02-12T14:54:09;102325.94;;;2.99;60.04
22662;BME280;11497;52.222;21.246;2023-02-12T14:56:47;102327.25;;;2.85;60.73
22662;BME280;11497;52.222;21.246;2023-02-12T14:59:18;102328.03;;;2.82;61.70
22662;BME280;11497;52.222;21.246;2023-02-12T15:01:48;102335.41;;;2.70;62.48
22662;BME280;11497;52.222;21.246;2023-02-12T15:04:27;102342.78;;;2.86;62.95
22662;BME280;11497;52.222;21.246;2023-02-12T15:07:07;102331.94;;;2.70;63.27
22662;BME280;11497;52.222;21.246;2023-02-12T15:09:45;102335.13;;;2.59;64.02
22662;BME280;11497;52.222;21.246;2023-02-12T15:12:31;102337.47;;;2.52;64.73
22662;BME280;11497;52.222;21.246;2023-02-12T15:15:10;102343.81;;;2.63;65.23
22662;BME280;11497;52.222;21.246;2023-02-12T15:17:41;102336.72;;;2.56;65.30
22662;BME280;11497;52.222;21.246;2023-02-12T15:20:24;102336.28;;;2.42;65.74
22662;BME280;11497;52.222;21.246;2023-02-12T15:22:58;102339.41;;;2.32;66.19
22662;BME280;11497;52.222;21.246;2023-02-12T15:25:28;102334.72;;;2.20;66.61
22662;BME280;11497;52.222;21.246;2023-02-12T15:28:20;102340.41;;;2.09;67.32
22662;BME280;11497;52.222;21.246;2023-02-12T15:30:52;102333.97;;;1.96;67.71
22662;BME280;11497;52.222;21.246;2023-02-12T15:33:31;102343.75;;;2.06;68.39
22662;BME280;11497;52.222;21.246;2023-02-12T15:36:02;102349.13;;;1.87;68.71
22662;BME280;11497;52.222;21.246;2023-02-12T15:38:40;102347.50;;;1.89;69.27
22662;BME280;11497;52.222;21.246;2023-02-12T15:44:03;102357.59;;;1.83;69.91
22662;BME280;11497;52.222;21.246;2023-02-12T15:46:31;102362.47;;;1.74;70.47
22662;BME280;11497;52.222;21.246;2023-02-12T15:48:59;102353.59;;;1.65;70.98
22662;BME280;11497;52.222;21.246;2023-02-12T15:51:33;102358.53;;;1.59;71.20
22662;BME280;11497;52.222;21.246;2023-02-12T15:54:04;102354.72;;;1.48;71.58
22662;BME280;11497;52.222;21.246;2023-02-12T15:56:34;102360.09;;;1.54;72.01
22662;BME280;11497;52.222;21.246;2023-02-12T15:59:03;102368.97;;;1.39;72.36